createdAt,value
2018-03-21T00:02:29.690Z,79.75
2018-03-21T00:05:03.220Z,79.79
2018-03-21T00:07:35.406Z,79.64
2018-03-21T00:10:07.653Z,81.02
2018-03-21T00:12:40.333Z,80.94
2018-03-21T00:15:12.588Z,80.24
2018-03-21T00:17:45.074Z,80.09
2018-03-21T00:20:17.306Z,80.09
2018-03-21T00:22:50.194Z,80.90
2018-03-21T00:25:22.544Z,79.84
2018-03-21T00:27:54.575Z,79.71
2018-03-21T00:30:28.073Z,79.34
2018-03-21T00:33:00.223Z,80.25
2018-03-21T00:35:32.488Z,80.85
2018-03-21T00:38:04.949Z,80.25
2018-03-21T00:40:37.166Z,81.07
2018-03-21T00:43:09.532Z,80.35
2018-03-21T00:45:41.596Z,80.74
2018-03-21T00:48:13.810Z,79.99
2018-03-21T00:50:46.002Z,80.74
2018-03-21T00:53:18.321Z,81.38
2018-03-21T00:55:50.661Z,80.51
2018-03-21T00:58:22.881Z,80.53
2018-03-21T01:00:56.998Z,80.07
2018-03-21T01:03:29.382Z,80.15
2018-03-21T01:06:01.871Z,80.59
2018-03-21T01:08:34.977Z,80.03
2018-03-21T01:11:08.070Z,79.78
2018-03-21T01:13:41.017Z,79.58
2018-03-21T01:16:13.607Z,79.96
2018-03-21T01:18:45.592Z,79.39
2018-03-21T01:21:17.898Z,79.81
2018-03-21T01:23:50.553Z,79.33
2018-03-21T01:26:22.757Z,78.63
2018-03-21T01:28:54.785Z,79.23
2018-03-21T01:31:27.754Z,80.28
2018-03-21T01:33:59.968Z,80.53
2018-03-21T01:36:32.627Z,80.17
2018-03-21T01:39:04.915Z,80.14
2018-03-21T01:41:38.025Z,79.44
2018-03-21T01:44:10.400Z,80.07
2018-03-21T01:46:42.593Z,78.95
2018-03-21T01:49:14.946Z,80.32
2018-03-21T01:51:47.923Z,79.12
2018-03-21T01:54:20.093Z,80.32
2018-03-21T01:56:52.266Z,79.41
2018-03-21T01:59:24.644Z,80.19
2018-03-21T02:01:57.062Z,80.12
2018-03-21T02:04:29.225Z,80.46
2018-03-21T02:07:01.509Z,80.07
2018-03-21T02:09:34.464Z,80.74
2018-03-21T02:12:06.840Z,81.42
2018-03-21T02:14:39.234Z,80.75
2018-03-21T02:17:11.455Z,81.29
2018-03-21T02:19:43.601Z,80.35
2018-03-21T02:22:16.600Z,80.26
2018-03-21T02:24:48.927Z,80.91
2018-03-21T02:27:22.163Z,79.94
2018-03-21T02:31:18.388Z,80.87
2018-03-21T02:33:50.543Z,79.38
2018-03-21T02:36:23.394Z,78.76
2018-03-21T02:38:55.471Z,78.66
2018-03-21T02:41:27.666Z,80.71
2018-03-21T02:44:00.216Z,79.88
2018-03-21T02:46:32.348Z,80.39
2018-03-21T02:49:04.845Z,81.22
2018-03-21T02:51:37.526Z,80.14
2018-03-21T02:54:09.895Z,79.79
2018-03-21T02:56:42.084Z,80.22
2018-03-21T02:59:14.253Z,80.92
2018-03-21T03:01:46.681Z,81.28
2018-03-21T03:04:18.908Z,80.16
2018-03-21T03:06:51.111Z,80.48
2018-03-21T03:09:23.515Z,80.58
2018-03-21T03:11:56.425Z,81.20
2018-03-21T03:14:28.739Z,80.77
2018-03-21T03:17:00.916Z,80.87
2018-03-21T03:19:33.337Z,81.16
2018-03-21T03:22:05.583Z,80.81
2018-03-21T03:24:37.744Z,80.15
2018-03-21T03:27:10.050Z,81.02
2018-03-21T03:29:42.709Z,81.21
2018-03-21T03:32:14.888Z,81.89
2018-03-21T03:34:47.257Z,81.66
2018-03-21T03:37:19.294Z,79.97
2018-03-21T03:39:51.667Z,80.01
2018-03-21T03:42:23.959Z,79.92
2018-03-21T03:44:56.683Z,79.24
2018-03-21T03:47:29.067Z,78.97
2018-03-21T03:50:01.143Z,79.36
2018-03-21T03:52:33.582Z,78.67
2018-03-21T03:55:07.354Z,78.87
2018-03-21T03:57:39.558Z,78.51
2018-03-21T04:00:11.956Z,78.99
2018-03-21T04:02:44.415Z,78.89
2018-03-21T04:05:16.467Z,79.40
2018-03-21T04:07:48.812Z,79.29
2018-03-21T04:10:21.962Z,78.42
2018-03-21T04:12:54.448Z,79.19
2018-03-21T04:15:26.765Z,79.65
2018-03-21T04:17:59.231Z,78.78
2018-03-21T04:20:31.584Z,79.12
2018-03-21T04:23:03.613Z,78.98
2018-03-21T04:25:36.749Z,79.47
2018-03-21T04:28:08.956Z,78.55
2018-03-21T04:30:41.152Z,78.86
2018-03-21T04:33:13.693Z,79.60
2018-03-21T04:35:45.827Z,78.79
2018-03-21T04:38:18.148Z,78.12
2018-03-21T04:40:50.733Z,79.31
2018-03-21T04:43:22.840Z,80.14
2018-03-21T04:45:55.744Z,79.83
2018-03-21T04:48:28.292Z,79.45
2018-03-21T04:51:00.649Z,79.58
2018-03-21T04:53:32.922Z,79.74
2018-03-21T04:56:05.517Z,78.81
2018-03-21T04:58:37.970Z,78.17
2018-03-21T05:01:10.469Z,77.88
2018-03-21T05:03:44.082Z,77.88
2018-03-21T05:06:16.291Z,78.22
2018-03-21T05:08:48.438Z,78.83
2018-03-21T05:11:21.337Z,78.43
2018-03-21T05:13:53.688Z,78.48
2018-03-21T05:16:25.916Z,77.75
2018-03-21T05:18:59.113Z,78.86
2018-03-21T05:21:32.094Z,77.83
2018-03-21T05:24:04.605Z,77.44
2018-03-21T05:26:38.323Z,76.61
2018-03-21T05:29:10.809Z,77.43
2018-03-21T05:31:43.242Z,76.91
2018-03-21T05:34:15.811Z,76.73
2018-03-21T05:36:48.149Z,77.70
2018-03-21T05:39:20.609Z,76.35
2018-03-21T05:41:53.130Z,77.06
2018-03-21T05:44:25.676Z,77.17
2018-03-21T05:46:57.779Z,78.17
2018-03-21T05:49:30.581Z,77.62
2018-03-21T05:52:03.045Z,76.75
2018-03-21T05:54:36.349Z,76.33
2018-03-21T05:57:08.742Z,75.27
2018-03-21T05:59:41.028Z,76.13
2018-03-21T06:02:14.056Z,75.73
2018-03-21T06:04:47.462Z,75.84
2018-03-21T06:07:19.683Z,77.35
2018-03-21T06:09:51.877Z,77.17
2018-03-21T06:12:24.677Z,77.23
2018-03-21T06:14:57.041Z,75.86
2018-03-21T06:17:29.551Z,77.06
2018-03-21T06:20:01.674Z,75.34
2018-03-21T06:22:34.024Z,76.50
2018-03-21T06:25:07.236Z,77.63
2018-03-21T06:27:39.974Z,77.66
2018-03-21T06:30:12.462Z,77.87
2018-03-21T06:32:44.694Z,78.31
2018-03-21T06:35:19.044Z,78.84
2018-03-21T06:37:51.602Z,78.40
2018-03-21T06:40:23.915Z,79.26
2018-03-21T06:42:57.263Z,77.93
2018-03-21T06:45:29.733Z,77.47
2018-03-21T06:48:02.130Z,77.74
2018-03-21T06:50:34.618Z,77.22
2018-03-21T06:53:06.968Z,76.56
2018-03-21T06:55:39.777Z,77.16
2018-03-21T06:58:12.215Z,76.25
2018-03-21T07:00:44.538Z,75.49
2018-03-21T07:03:16.959Z,75.68
2018-03-21T07:05:49.432Z,76.80
2018-03-21T07:08:22.162Z,76.08
2018-03-21T07:10:54.660Z,74.62
2018-03-21T07:13:31.890Z,75.60
2018-03-21T07:16:43.559Z,74.40
2018-03-21T07:19:16.035Z,73.12
2018-03-21T07:21:48.424Z,74.19
2018-03-21T07:24:20.989Z,73.41
2018-03-21T07:26:53.673Z,73.50
2018-03-21T07:29:26.942Z,72.98
2018-03-21T07:31:59.627Z,74.44
2018-03-21T07:34:31.955Z,72.69
2018-03-21T07:37:06.964Z,72.13
2018-03-21T07:39:40.964Z,71.66
2018-03-21T07:42:13.251Z,72.66
2018-03-21T07:44:48.906Z,71.61
2018-03-21T07:47:21.467Z,71.03
2018-03-21T07:49:54.182Z,71.52
2018-03-21T07:52:26.756Z,72.55
2018-03-21T07:54:59.553Z,70.67
2018-03-21T07:57:32.113Z,71.90
2018-03-21T08:00:08.476Z,70.81
2018-03-21T08:02:41.009Z,70.11
2018-03-21T08:05:13.345Z,71.71
2018-03-21T08:07:49.327Z,70.19
2018-03-21T08:10:21.927Z,70.02
2018-03-21T08:12:54.563Z,68.77
2018-03-21T08:15:30.775Z,69.76
2018-03-21T08:18:03.498Z,69.96
2018-03-21T08:20:35.854Z,69.41
2018-03-21T08:23:13.237Z,70.81
2018-03-21T08:25:45.883Z,68.48
2018-03-21T08:28:18.478Z,68.20
2018-03-21T08:30:51.171Z,69.05
2018-03-21T08:33:24.234Z,68.71
2018-03-21T08:35:56.793Z,67.63
2018-03-21T08:38:33.854Z,67.55
2018-03-21T08:41:06.619Z,68.45
2018-03-21T08:43:38.967Z,68.61
2018-03-21T08:46:13.856Z,66.27
2018-03-21T08:48:47.916Z,67.16
2018-03-21T08:51:20.313Z,65.96
2018-03-21T08:53:52.868Z,67.54
2018-03-21T08:56:26.036Z,65.88
2018-03-21T08:58:58.356Z,65.51
2018-03-21T09:01:30.736Z,66.11
2018-03-21T09:04:03.145Z,64.37
2018-03-21T10:48:32.895Z,47.04
2018-03-21T10:51:05.523Z,47.87
2018-03-21T10:53:39.728Z,45.42
2018-03-21T10:56:15.918Z,45.97
2018-03-21T10:58:48.537Z,47.96
2018-03-21T11:01:29.086Z,45.44
2018-03-21T11:04:02.566Z,47.08
2018-03-21T11:06:36.692Z,44.05
2018-03-21T11:09:10.153Z,44.64
2018-03-21T11:11:44.838Z,44.22
2018-03-21T11:14:18.115Z,44.56
2018-03-21T11:16:54.508Z,44.99
2018-03-21T11:19:31.795Z,44.02
2018-03-21T11:22:11.079Z,42.96
2018-03-21T11:24:46.667Z,45.02
2018-03-21T11:27:19.697Z,43.70
2018-03-21T11:29:53.330Z,42.36
2018-03-21T11:32:26.233Z,42.94
2018-03-21T11:34:59.004Z,43.93
2018-03-21T11:37:31.806Z,43.21
2018-03-21T11:40:04.597Z,42.58
2018-03-21T11:42:38.501Z,43.81
2018-03-21T11:45:12.469Z,42.85
2018-03-21T11:47:45.935Z,44.57
2018-03-21T11:50:22.256Z,41.89
2018-03-21T11:53:08.370Z,41.45
2018-03-21T11:55:43.349Z,42.15
2018-03-21T11:58:23.366Z,43.66
2018-03-21T12:00:58.196Z,42.62
2018-03-21T12:03:31.684Z,43.70
2018-03-21T12:06:04.791Z,44.94
2018-03-21T12:08:44.743Z,42.24
2018-03-21T12:11:17.765Z,39.56
2018-03-21T12:13:55.780Z,38.73
2018-03-21T12:16:29.474Z,38.36
2018-03-21T12:21:58.026Z,38.46
2018-03-21T12:24:41.029Z,40.05
2018-03-21T12:27:14.735Z,38.69
2018-03-21T12:29:47.403Z,35.50
2018-03-21T12:32:21.620Z,36.29
2018-03-21T12:35:01.504Z,36.86
2018-03-21T12:37:38.484Z,33.17
2018-03-21T12:40:14.489Z,32.51
2018-03-21T12:42:52.486Z,33.87
2018-03-21T12:45:26.890Z,34.66
2018-03-21T12:48:03.468Z,36.79
2018-03-21T12:50:36.962Z,32.64
2018-03-21T12:53:09.820Z,32.46
2018-03-21T12:55:43.372Z,35.63
2018-03-21T12:58:18.734Z,36.00
2018-03-21T13:00:51.861Z,36.33
2018-03-21T13:03:24.663Z,36.91
2018-03-21T13:19:02.835Z,38.25
2018-03-21T13:21:36.579Z,35.91
2018-03-21T13:24:11.499Z,37.01
2018-03-21T13:26:51.215Z,35.08
2018-03-21T13:29:27.935Z,36.04
2018-03-21T13:32:01.308Z,37.33
2018-03-21T13:34:35.338Z,36.32
2018-03-21T13:37:07.916Z,36.97
2018-03-21T13:39:45.267Z,35.99
2018-03-21T13:42:26.301Z,36.00
2018-03-21T13:44:59.077Z,35.54
2018-03-21T13:47:31.859Z,33.93
2018-03-21T13:50:12.779Z,34.48
2018-03-21T13:52:52.122Z,34.76
2018-03-21T13:55:29.999Z,35.37
2018-03-21T13:58:09.934Z,34.88
2018-03-21T14:00:47.657Z,35.96
2018-03-21T14:03:20.460Z,33.68
2018-03-21T14:06:00.172Z,35.06
2018-03-21T14:08:33.545Z,35.92
2018-03-21T14:11:09.948Z,35.96
2018-03-21T14:13:42.727Z,36.18
2018-03-21T14:16:15.484Z,37.31
2018-03-21T14:18:48.290Z,36.49
2018-03-21T14:21:23.491Z,36.99
2018-03-21T14:24:01.390Z,33.72
2018-03-21T14:26:35.577Z,34.78
2018-03-21T14:29:13.103Z,33.32
2018-03-21T14:31:46.020Z,33.02
2018-03-21T14:34:19.603Z,32.46
2018-03-21T14:36:52.131Z,32.64
2018-03-21T14:39:25.817Z,33.76
2018-03-21T15:00:20.459Z,31.58
2018-03-21T15:02:53.248Z,30.93
2018-03-21T15:05:31.631Z,32.04
2018-03-21T15:08:05.752Z,31.76
2018-03-21T15:10:39.253Z,33.35
2018-03-21T15:13:12.003Z,30.95
2018-03-21T15:15:44.545Z,32.15
2018-03-21T15:18:23.448Z,33.52
2018-03-21T15:20:56.884Z,32.41
2018-03-21T15:23:31.066Z,32.07
2018-03-21T15:26:10.727Z,31.76
2018-03-21T15:28:43.241Z,31.65
2018-03-21T15:31:15.878Z,31.31
2018-03-21T15:33:54.951Z,32.15
2018-03-21T15:36:27.757Z,31.74
2018-03-21T15:39:00.440Z,31.24
2018-03-21T15:41:37.020Z,30.38
2018-03-21T15:44:09.800Z,30.16
2018-03-21T15:46:43.198Z,30.14
2018-03-21T15:49:19.522Z,31.32
2018-03-21T15:51:52.308Z,29.36
2018-03-21T15:54:26.687Z,30.13
2018-03-21T15:56:59.482Z,28.98
2018-03-21T15:59:34.320Z,29.55
2018-03-21T16:02:14.210Z,30.04
2018-03-21T16:04:51.695Z,30.13
2018-03-21T16:07:26.286Z,28.47
2018-03-21T16:10:02.026Z,29.34
2018-03-21T16:12:41.107Z,29.54
2018-03-21T16:15:13.957Z,29.71
2018-03-21T16:17:46.547Z,28.99
2018-03-21T16:20:23.250Z,31.17
2018-03-21T16:22:56.146Z,28.89
2018-03-21T16:25:28.810Z,30.55
2018-03-21T16:28:02.576Z,29.37
2018-03-21T16:30:35.635Z,30.96
2018-03-21T16:33:08.842Z,30.13
2018-03-21T16:35:44.843Z,29.72
2018-03-21T16:38:18.993Z,30.53
2018-03-21T16:40:53.117Z,32.30
2018-03-21T16:43:31.865Z,30.62
2018-03-21T16:46:05.320Z,32.26
2018-03-21T16:48:38.168Z,31.56
2018-03-21T16:51:11.436Z,29.52
2018-03-21T16:53:44.910Z,29.72
2018-03-21T16:56:19.950Z,30.81
2018-03-21T16:58:53.023Z,32.49
2018-03-21T17:01:25.999Z,33.35
2018-03-21T17:04:04.010Z,32.80
2018-03-21T17:06:36.876Z,32.99
2018-03-21T17:09:11.189Z,33.71
2018-03-21T17:11:45.064Z,35.71
2018-03-21T17:14:17.874Z,37.51
2018-03-21T17:16:50.695Z,37.18
2018-03-21T17:19:23.624Z,37.56
2018-03-21T17:21:56.193Z,38.53
2018-03-21T17:24:29.079Z,39.09
2018-03-21T17:27:02.059Z,40.34
2018-03-21T17:29:34.767Z,39.89
2018-03-21T17:32:07.424Z,40.20
2018-03-21T17:34:40.031Z,40.47
2018-03-21T17:37:14.468Z,42.28
2018-03-21T17:39:47.394Z,41.73
2018-03-21T17:42:24.953Z,42.40
2018-03-21T17:44:57.935Z,43.98
2018-03-21T17:47:31.957Z,44.41
2018-03-21T17:50:05.315Z,43.09
2018-03-21T17:52:38.655Z,42.97
2018-03-21T17:55:11.400Z,44.10
2018-03-21T17:57:44.442Z,44.57
2018-03-21T18:00:17.283Z,45.19
2018-03-21T18:02:50.037Z,45.60
2018-03-21T18:05:22.916Z,46.15
2018-03-21T18:07:55.591Z,46.83
2018-03-21T18:10:28.305Z,47.53
2018-03-21T18:13:01.621Z,47.94
2018-03-21T18:15:34.401Z,48.92
2018-03-21T18:18:08.090Z,49.28
2018-03-21T18:20:41.574Z,50.12
2018-03-21T18:23:16.233Z,50.22
2018-03-21T18:25:49.044Z,50.39
2018-03-21T18:28:21.818Z,52.10
2018-03-21T18:30:56.005Z,52.18
2018-03-21T18:33:28.916Z,54.27
2018-03-21T18:36:02.581Z,53.27
2018-03-21T18:38:36.161Z,54.27
2018-03-21T18:41:08.820Z,54.07
2018-03-21T18:43:44.388Z,53.45
2018-03-21T18:46:17.906Z,56.30
2018-03-21T18:48:50.681Z,55.29
2018-03-21T18:51:26.553Z,55.00
2018-03-21T18:53:59.575Z,54.81
2018-03-21T18:56:32.901Z,55.89
2018-03-21T18:59:06.478Z,59.89
2018-03-21T19:01:42.976Z,57.19
2018-03-21T19:04:15.567Z,57.91
2018-03-21T19:06:48.656Z,57.83
2018-03-21T19:09:21.300Z,57.67
2018-03-21T19:11:53.772Z,58.85
2018-03-21T19:14:28.346Z,58.70
2018-03-21T19:17:01.055Z,60.23
2018-03-21T19:19:35.043Z,59.18
2018-03-21T19:22:07.472Z,59.87
2018-03-21T19:24:42.110Z,60.74
2018-03-21T19:27:16.134Z,60.64
2018-03-21T19:29:48.925Z,61.05
2018-03-21T19:32:22.584Z,61.50
2018-03-21T19:34:55.217Z,61.42
2018-03-21T19:37:28.292Z,61.56
2018-03-21T19:40:02.270Z,61.45
2018-03-21T19:42:36.080Z,61.01
2018-03-21T19:45:09.577Z,61.86
2018-03-21T19:47:43.050Z,61.40
2018-03-21T19:50:16.498Z,62.04
2018-03-21T19:52:49.130Z,61.43
2018-03-21T19:55:21.811Z,61.68
2018-03-21T19:57:55.676Z,62.11
2018-03-21T20:00:28.493Z,61.14
2018-03-21T20:03:01.791Z,61.31
2018-03-21T20:05:34.455Z,61.79
2018-03-21T20:08:08.341Z,60.78
2018-03-21T20:10:41.018Z,61.01
2018-03-21T20:13:13.601Z,60.68
2018-03-21T20:15:46.217Z,61.51
2018-03-21T20:18:18.794Z,61.35
2018-03-21T20:20:51.337Z,61.97
2018-03-21T20:23:24.263Z,61.33
2018-03-21T20:25:56.882Z,61.19
2018-03-21T20:28:29.471Z,62.08
2018-03-21T20:31:02.147Z,61.59
2018-03-21T20:33:35.335Z,63.10
2018-03-21T20:36:08.928Z,62.34
2018-03-21T20:38:41.371Z,63.17
2018-03-21T20:41:22.698Z,60.76
2018-03-21T20:43:58.029Z,60.81
2018-03-21T20:46:30.631Z,61.12
2018-03-21T20:49:03.704Z,61.52
2018-03-21T20:51:36.352Z,60.61
2018-03-21T20:54:09.109Z,60.81
2018-03-21T20:56:42.021Z,60.91
2018-03-21T20:59:14.747Z,62.26
2018-03-21T21:01:47.156Z,60.65
2018-03-21T21:04:19.557Z,60.03
2018-03-21T21:06:52.262Z,60.56
2018-03-21T21:09:24.903Z,60.24
2018-03-21T21:11:57.713Z,60.15
2018-03-21T21:14:30.155Z,60.55
2018-03-21T21:17:02.801Z,61.23
2018-03-21T21:19:36.274Z,59.76
2018-03-21T21:22:09.765Z,60.00
2018-03-21T21:24:42.573Z,59.92
2018-03-21T21:27:16.057Z,61.20
2018-03-21T21:29:48.436Z,59.77
2018-03-21T21:32:21.664Z,59.99
2018-03-21T21:34:54.283Z,59.79
2018-03-21T21:37:28.433Z,61.21
2018-03-21T21:40:01.030Z,59.77
2018-03-21T21:42:33.324Z,59.39
2018-03-21T21:45:05.833Z,59.51
2018-03-21T21:47:38.541Z,59.98
2018-03-21T21:50:11.609Z,58.92
2018-03-21T21:52:47.193Z,58.95
2018-03-21T21:55:24.245Z,59.16
2018-03-21T21:57:56.729Z,59.18
2018-03-21T22:00:29.532Z,62.09
2018-03-21T22:03:02.364Z,61.26
2018-03-21T22:05:34.796Z,59.67
2018-03-21T22:08:08.368Z,61.07
2018-03-21T22:10:41.074Z,58.99
2018-03-21T22:13:14.234Z,60.47
2018-03-21T22:15:46.629Z,59.82
2018-03-21T22:18:19.941Z,58.25
2018-03-21T22:20:52.417Z,58.63
2018-03-21T22:23:29.660Z,59.86
2018-03-21T22:26:02.287Z,59.16
2018-03-21T22:28:34.849Z,58.22
2018-03-21T22:31:09.344Z,59.80
2018-03-21T22:33:41.839Z,58.22
2018-03-21T22:36:14.166Z,58.65
2018-03-21T22:38:46.697Z,59.04
2018-03-21T22:41:19.236Z,60.05
2018-03-21T22:43:51.701Z,60.74
2018-03-21T22:46:24.522Z,58.28
2018-03-21T22:48:57.992Z,59.32
2018-03-21T22:51:30.634Z,58.39
2018-03-21T22:54:03.550Z,58.53
2018-03-21T22:56:35.986Z,60.90
2018-03-21T22:59:08.831Z,58.92
2018-03-21T23:01:41.219Z,58.55
2018-03-21T23:04:13.711Z,60.54
2018-03-21T23:06:46.200Z,62.12
2018-03-21T23:09:18.543Z,60.19
2018-03-21T23:11:52.696Z,61.12
2018-03-21T23:14:26.229Z,63.55
2018-03-21T23:16:58.542Z,61.36
2018-03-21T23:19:32.302Z,62.27
2018-03-21T23:22:04.620Z,63.40
2018-03-21T23:24:37.154Z,62.73
2018-03-21T23:27:10.074Z,62.50
2018-03-21T23:29:42.544Z,63.79
2018-03-21T23:32:15.035Z,65.06
2018-03-21T23:34:47.959Z,63.20
2018-03-21T23:37:20.612Z,64.09
2018-03-21T23:39:54.114Z,65.76
2018-03-21T23:42:28.083Z,65.98
2018-03-21T23:45:00.498Z,66.63
2018-03-21T23:47:33.058Z,65.26
2018-03-21T23:50:06.549Z,67.07
2018-03-21T23:52:39.715Z,67.29
2018-03-21T23:55:12.222Z,67.06
2018-03-21T23:57:46.140Z,64.90
